createdAt,value
2018-07-13T00:01:02.726Z,101280.59
2018-07-13T00:03:32.081Z,101278.52
2018-07-13T00:06:01.210Z,101280.30
2018-07-13T00:08:30.923Z,101281.84
2018-07-13T00:11:01.066Z,101279.02
2018-07-13T00:13:30.198Z,101286.41
2018-07-13T00:16:01.618Z,101285.58
2018-07-13T00:18:30.985Z,101282.27
2018-07-13T00:21:00.190Z,101282.91
2018-07-13T00:23:31.472Z,101281.27
2018-07-13T00:26:00.605Z,101287.31
2018-07-13T00:28:29.733Z,101291.88
2018-07-13T00:30:58.869Z,101291.63
2018-07-13T00:33:28.033Z,101293.02
2018-07-13T00:35:57.140Z,101293.22
2018-07-13T00:38:26.289Z,101291.45
2018-07-13T00:40:57.405Z,101292.28
2018-07-13T00:43:26.529Z,101286.41
2018-07-13T00:45:55.667Z,101292.52
2018-07-13T00:48:24.793Z,101298.63
2018-07-13T00:50:53.899Z,101298.19
2018-07-13T00:53:24.077Z,101294.09
2018-07-13T00:55:53.216Z,101294.41
2018-07-13T00:58:22.366Z,101306.55
2018-07-13T01:00:51.498Z,101306.96
2018-07-13T01:03:20.654Z,101301.23
2018-07-13T01:05:49.766Z,101300.14
2018-07-13T01:08:18.938Z,101307.08
2018-07-13T01:10:48.296Z,101311.95
2018-07-13T01:13:17.626Z,101311.66
2018-07-13T01:15:46.808Z,101312.58
2018-07-13T01:18:15.914Z,101311.86
2018-07-13T01:20:45.140Z,101302.68
2018-07-13T01:23:14.269Z,101299.80
2018-07-13T01:25:43.406Z,101311.42
2018-07-13T01:28:12.614Z,101308.48
2018-07-13T01:30:41.814Z,101309.16
2018-07-13T01:33:10.961Z,101322.16
2018-07-13T01:35:40.161Z,101313.62
2018-07-13T01:38:09.301Z,101318.34
2018-07-13T01:40:38.417Z,101323.09
2018-07-13T01:43:11.177Z,101323.01
2018-07-13T01:45:40.290Z,101325.58
2018-07-13T01:48:09.417Z,101323.67
2018-07-13T01:50:38.553Z,101327.70
2018-07-13T01:53:07.674Z,101332.81
2018-07-13T01:55:36.823Z,101334.00
2018-07-13T01:58:05.901Z,101340.76
2018-07-13T02:00:35.017Z,101330.92
2018-07-13T02:03:04.125Z,101338.59
2018-07-13T02:05:33.277Z,101338.34
2018-07-13T02:08:02.418Z,101344.66
2018-07-13T02:10:31.521Z,101336.72
2018-07-13T02:13:00.667Z,101340.92
2018-07-13T02:15:33.641Z,101335.07
2018-07-13T02:18:02.810Z,101340.88
2018-07-13T02:20:31.910Z,101333.16
2018-07-13T02:23:01.017Z,101337.38
2018-07-13T02:25:30.146Z,101334.11
2018-07-13T02:27:59.257Z,101342.53
2018-07-13T02:30:28.360Z,101345.27
2018-07-13T02:32:57.525Z,101349.22
2018-07-13T02:35:27.290Z,101341.85
2018-07-13T02:37:56.404Z,101343.45
2018-07-13T02:40:25.499Z,101349.58
2018-07-13T02:42:54.633Z,101342.16
2018-07-13T02:45:23.749Z,101349.67
2018-07-13T02:47:52.937Z,101351.14
2018-07-13T02:50:28.214Z,101350.72
2018-07-13T02:52:57.317Z,101352.05
2018-07-13T02:55:26.441Z,101351.66
2018-07-13T02:57:55.578Z,101355.36
2018-07-13T03:00:24.673Z,101356.91
2018-07-13T03:02:53.781Z,101353.72
2018-07-13T03:05:22.890Z,101355.98
2018-07-13T03:07:52.081Z,101364.20
2018-07-13T03:10:21.193Z,101362.21
2018-07-13T03:12:50.281Z,101365.11
2018-07-13T03:15:19.405Z,101364.84
2018-07-13T03:17:48.517Z,101367.76
2018-07-13T03:20:17.750Z,101361.41
2018-07-13T03:22:47.898Z,101371.33
2018-07-13T03:25:17.077Z,101367.68
2018-07-13T03:27:46.202Z,101376.22
2018-07-13T03:30:15.338Z,101376.16
2018-07-13T03:32:44.462Z,101375.50
2018-07-13T03:35:13.630Z,101375.39
2018-07-13T03:37:42.761Z,101383.71
2018-07-13T03:40:11.885Z,101380.80
2018-07-13T03:42:41.073Z,101378.28
2018-07-13T03:45:10.178Z,101386.52
2018-07-13T03:47:39.317Z,101391.38
2018-07-13T03:50:08.461Z,101387.66
2018-07-13T03:52:37.610Z,101395.67
2018-07-13T03:55:06.714Z,101389.17
2018-07-13T03:57:35.829Z,101392.30
2018-07-13T04:00:05.042Z,101390.39
2018-07-13T04:02:34.252Z,101393.19
2018-07-13T04:05:03.450Z,101387.97
2018-07-13T04:07:32.541Z,101388.45
2018-07-13T04:10:05.459Z,101389.52
2018-07-13T04:12:34.650Z,101383.71
2018-07-13T04:15:03.787Z,101386.34
2018-07-13T04:17:32.934Z,101386.77
2018-07-13T04:20:03.106Z,101385.10
2018-07-13T04:22:32.249Z,101381.06
2018-07-13T04:25:01.410Z,101386.11
2018-07-13T04:27:31.214Z,101386.27
2018-07-13T04:30:00.394Z,101384.41
2018-07-13T04:32:29.490Z,101380.50
2018-07-13T04:34:58.653Z,101377.13
2018-07-13T04:37:27.841Z,101386.98
2018-07-13T04:39:56.969Z,101384.27
2018-07-13T04:42:26.151Z,101385.81
2018-07-13T04:44:55.317Z,101376.75
2018-07-13T04:47:24.465Z,101386.42
2018-07-13T04:49:53.626Z,101388.50
2018-07-13T04:52:22.799Z,101388.74
2018-07-13T04:54:52.225Z,101383.13
2018-07-13T04:57:21.536Z,101380.11
2018-07-13T04:59:50.722Z,101383.58
2018-07-13T05:02:19.905Z,101381.61
2018-07-13T05:04:49.147Z,101384.08
2018-07-13T05:07:18.301Z,101383.52
2018-07-13T05:09:47.483Z,101385.28
2018-07-13T05:12:16.745Z,101381.91
2018-07-13T05:14:45.861Z,101386.20
2018-07-13T05:17:14.986Z,101384.03
2018-07-13T05:19:44.090Z,101387.38
2018-07-13T05:22:13.261Z,101383.59
2018-07-13T05:24:42.412Z,101382.23
2018-07-13T05:27:11.658Z,101388.74
2018-07-13T05:29:40.771Z,101392.45
2018-07-13T05:32:09.954Z,101391.59
2018-07-13T05:34:39.286Z,101395.97
2018-07-13T05:37:08.585Z,101394.51
2018-07-13T05:39:37.749Z,101389.19
2018-07-13T05:42:07.109Z,101396.25
2018-07-13T05:44:36.265Z,101395.28
2018-07-13T05:47:05.435Z,101392.75
2018-07-13T05:49:34.642Z,101398.55
2018-07-13T05:52:03.925Z,101395.66
2018-07-13T05:54:33.070Z,101399.08
2018-07-13T05:57:02.234Z,101398.08
2018-07-13T05:59:31.421Z,101392.30
2018-07-13T06:02:00.649Z,101395.07
2018-07-13T06:04:29.840Z,101393.90
2018-07-13T06:06:58.989Z,101397.91
2018-07-13T06:09:28.192Z,101397.33
2018-07-13T06:11:59.677Z,101398.33
2018-07-13T06:14:28.858Z,101403.52
2018-07-13T06:16:57.953Z,101399.50
2018-07-13T06:19:27.093Z,101398.19
2018-07-13T06:21:57.333Z,101401.47
2018-07-13T06:24:26.507Z,101401.44
2018-07-13T06:26:55.650Z,101397.98
2018-07-13T06:29:24.766Z,101404.83
2018-07-13T06:31:53.889Z,101400.34
2018-07-13T06:34:23.051Z,101399.08
2018-07-13T06:36:52.197Z,101400.94
2018-07-13T06:39:21.360Z,101404.27
2018-07-13T06:41:50.695Z,101400.55
2018-07-13T06:44:19.838Z,101402.58
2018-07-13T06:46:48.956Z,101398.19
2018-07-13T06:49:18.141Z,101398.80
2018-07-13T06:51:47.340Z,101404.66
2018-07-13T06:54:16.676Z,101404.48
2018-07-13T06:56:45.954Z,101403.34
2018-07-13T06:59:16.337Z,101398.63
2018-07-13T07:01:45.934Z,101401.11
2018-07-13T07:04:36.757Z,101397.16
2018-07-13T07:07:08.945Z,101397.64
2018-07-13T07:09:38.666Z,101399.35
2018-07-13T07:13:16.043Z,101398.80
2018-07-13T07:15:44.909Z,101393.48
2018-07-13T07:18:14.049Z,101399.59
2018-07-13T07:20:43.725Z,101404.59
2018-07-13T07:23:13.561Z,101399.80
2018-07-13T07:25:42.726Z,101402.83
2018-07-13T07:28:11.870Z,101405.58
2018-07-13T07:30:41.127Z,101399.69
2018-07-13T07:33:13.493Z,101404.64
2018-07-13T07:35:42.645Z,101399.23
2018-07-13T07:38:11.765Z,101401.58
2018-07-13T07:40:40.946Z,101402.78
2018-07-13T07:43:10.138Z,101405.21
2018-07-13T07:45:42.692Z,101399.08
2018-07-13T07:48:11.937Z,101407.28
2018-07-13T07:50:41.197Z,101403.55
2018-07-13T07:53:10.325Z,101400.58
2018-07-13T07:55:39.724Z,101404.47
2018-07-13T07:58:08.881Z,101394.59
2018-07-13T08:00:38.009Z,101399.66
2018-07-13T08:03:07.797Z,101394.74
2018-07-13T08:05:36.921Z,101391.94
2018-07-13T08:08:06.261Z,101393.95
2018-07-13T08:10:35.379Z,101393.14
2018-07-13T08:13:05.413Z,101390.98
2018-07-13T08:15:34.577Z,101390.51
2018-07-13T08:18:03.744Z,101391.16
2018-07-13T08:20:35.027Z,101396.83
2018-07-13T08:23:07.345Z,101393.55
2018-07-13T08:25:36.954Z,101388.38
2018-07-13T08:28:07.045Z,101394.48
2018-07-13T08:30:41.685Z,101393.54
2018-07-13T08:33:10.797Z,101390.63
2018-07-13T08:35:39.973Z,101390.48
2018-07-13T08:38:09.150Z,101398.67
2018-07-13T08:40:46.797Z,101392.44
2018-07-13T08:43:15.996Z,101391.78
2018-07-13T08:45:45.188Z,101396.73
2018-07-13T08:48:14.261Z,101391.55
2018-07-13T08:50:43.411Z,101388.41
2018-07-13T08:53:12.594Z,101383.32
2018-07-13T08:55:41.765Z,101387.28
2018-07-13T08:58:10.925Z,101395.62
2018-07-13T09:00:40.194Z,101386.66
2018-07-13T09:03:09.361Z,101395.28
2018-07-13T09:05:38.529Z,101391.28
2018-07-13T09:08:07.717Z,101393.64
2018-07-13T09:10:36.853Z,101395.17
2018-07-13T09:13:06.247Z,101390.55
2018-07-13T09:15:35.365Z,101394.08
2018-07-13T09:18:04.502Z,101391.41
2018-07-13T09:20:33.654Z,101387.45
2018-07-13T09:23:02.806Z,101387.81
2018-07-13T09:25:31.974Z,101383.70
2018-07-13T09:28:01.086Z,101381.20
2018-07-13T09:30:30.261Z,101387.41
2018-07-13T09:32:59.391Z,101386.59
2018-07-13T09:35:28.583Z,101384.17
2018-07-13T09:37:57.744Z,101383.23
2018-07-13T09:40:26.897Z,101382.49
2018-07-13T09:42:56.273Z,101385.34
2018-07-13T09:45:25.405Z,101377.33
2018-07-13T09:47:54.600Z,101383.94
2018-07-13T09:50:23.750Z,101381.38
2018-07-13T09:52:52.911Z,101386.98
2018-07-13T09:55:22.046Z,101379.78
2018-07-13T09:57:51.180Z,101384.09
2018-07-13T10:00:20.293Z,101379.00
2018-07-13T10:02:49.465Z,101384.20
2018-07-13T10:05:18.611Z,101376.31
2018-07-13T10:07:47.808Z,101374.20
2018-07-13T10:10:16.974Z,101382.42
2018-07-13T10:12:46.193Z,101375.64
2018-07-13T10:15:15.349Z,101377.73
2018-07-13T10:17:44.577Z,101377.51
2018-07-13T10:20:13.730Z,101373.44
2018-07-13T10:22:42.905Z,101374.09
2018-07-13T10:25:12.075Z,101382.27
2018-07-13T10:27:41.241Z,101371.52
2018-07-13T10:30:12.170Z,101374.80
2018-07-13T10:32:42.842Z,101376.05
2018-07-13T10:35:13.110Z,101374.05
2018-07-13T10:37:42.877Z,101377.38
2018-07-13T10:40:15.705Z,101368.75
2018-07-13T10:42:44.793Z,101368.27
2018-07-13T10:45:13.941Z,101366.40
2018-07-13T10:47:43.154Z,101371.38
2018-07-13T10:50:12.233Z,101366.17
2018-07-13T10:52:41.349Z,101369.92
2018-07-13T10:55:10.460Z,101357.83
2018-07-13T10:57:39.577Z,101359.52
2018-07-13T11:00:08.711Z,101364.07
2018-07-13T11:02:37.834Z,101360.81
2018-07-13T11:05:06.929Z,101355.01
2018-07-13T11:07:36.069Z,101354.45
2018-07-13T11:10:05.709Z,101359.23
2018-07-13T11:12:34.821Z,101352.33
2018-07-13T11:15:03.977Z,101348.22
2018-07-13T11:17:33.069Z,101349.73
2018-07-13T11:20:02.219Z,101342.00
2018-07-13T11:22:31.265Z,101343.83
2018-07-13T11:25:00.389Z,101345.82
2018-07-13T11:27:29.502Z,101343.20
2018-07-13T11:29:58.605Z,101330.73
2018-07-13T11:32:27.696Z,101331.91
2018-07-13T11:34:56.938Z,101324.58
2018-07-13T11:37:26.294Z,101328.39
2018-07-13T11:39:55.325Z,101323.09
2018-07-13T11:42:24.592Z,101319.24
2018-07-13T11:44:53.694Z,101317.24
2018-07-13T11:47:22.802Z,101316.43
2018-07-13T11:49:51.989Z,101308.96
2018-07-13T11:52:21.121Z,101304.66
2018-07-13T11:54:50.234Z,101309.91
2018-07-13T11:57:19.349Z,101308.77
2018-07-13T11:59:48.482Z,101302.21
2018-07-13T12:02:17.601Z,101306.55
2018-07-13T12:04:46.714Z,101299.41
2018-07-13T12:07:15.809Z,101301.25
2018-07-13T12:09:44.934Z,101301.53
2018-07-13T12:12:14.050Z,101298.97
2018-07-13T12:14:43.158Z,101294.93
2018-07-13T12:17:12.266Z,101284.98
2018-07-13T12:19:41.395Z,101292.03
2018-07-13T12:22:10.516Z,101284.83
2018-07-13T12:24:39.637Z,101279.58
2018-07-13T12:27:08.751Z,101275.01
2018-07-13T12:29:37.925Z,101277.08
2018-07-13T12:32:07.101Z,101271.77
2018-07-13T12:34:37.301Z,101268.83
2018-07-13T12:37:07.506Z,101262.50
2018-07-13T12:39:36.668Z,101273.02
2018-07-13T12:42:05.781Z,101279.22
2018-07-13T12:44:34.873Z,101280.91
2018-07-13T12:47:04.037Z,101277.27
2018-07-13T12:49:33.169Z,101271.76
2018-07-13T12:52:02.314Z,101264.44
2018-07-13T12:54:31.454Z,101274.23
2018-07-13T12:57:00.537Z,101264.52
2018-07-13T12:59:29.682Z,101268.88
2018-07-13T13:01:58.744Z,101273.80
2018-07-13T13:04:27.856Z,101269.30
2018-07-13T13:06:56.989Z,101270.81
2018-07-13T13:09:26.145Z,101273.11
2018-07-13T13:11:55.235Z,101272.95
2018-07-13T13:14:24.373Z,101275.31
2018-07-13T13:16:53.463Z,101279.63
2018-07-13T13:19:22.565Z,101278.75
2018-07-13T13:21:51.757Z,101278.81
2018-07-13T13:24:20.786Z,101275.98
2018-07-13T13:26:50.709Z,101266.95
2018-07-13T13:29:19.837Z,101271.42
2018-07-13T13:31:48.893Z,101271.20
2018-07-13T13:34:17.981Z,101272.34
2018-07-13T13:36:47.106Z,101267.66
2018-07-13T13:39:16.299Z,101260.05
2018-07-13T13:41:45.581Z,101260.23
2018-07-13T13:44:14.692Z,101255.80
2018-07-13T13:46:43.765Z,101252.81
2018-07-13T13:49:12.889Z,101255.77
2018-07-13T13:51:42.014Z,101258.62
2018-07-13T13:54:11.114Z,101255.38
2018-07-13T13:56:40.221Z,101252.62
2018-07-13T13:59:09.347Z,101246.55
2018-07-13T14:01:38.460Z,101244.81
2018-07-13T14:04:07.573Z,101241.85
2018-07-13T14:06:36.713Z,101236.96
2018-07-13T14:09:07.831Z,101235.36
2018-07-13T14:11:36.825Z,101226.34
2018-07-13T14:14:05.972Z,101235.73
2018-07-13T14:16:35.078Z,101230.75
2018-07-13T14:19:04.173Z,101228.70
2018-07-13T14:21:33.290Z,101228.36
2018-07-13T14:24:02.434Z,101223.42
2018-07-13T14:26:31.577Z,101225.34
2018-07-13T14:29:01.798Z,101226.36
2018-07-13T14:31:32.905Z,101210.89
2018-07-13T14:34:02.002Z,101217.23
2018-07-13T14:36:33.993Z,101221.46
2018-07-13T14:39:03.230Z,101225.22
2018-07-13T14:41:32.397Z,101226.49
2018-07-13T14:44:01.542Z,101222.20
2018-07-13T14:46:31.301Z,101224.70
2018-07-13T14:49:00.509Z,101214.33
2018-07-13T14:51:31.238Z,101211.84
2018-07-13T14:54:00.569Z,101218.73
2018-07-13T14:56:29.768Z,101215.15
2018-07-13T14:58:58.887Z,101213.92
2018-07-13T15:01:28.017Z,101217.81
2018-07-13T15:03:57.157Z,101223.62
2018-07-13T15:06:28.436Z,101218.22
2018-07-13T15:09:00.893Z,101218.00
2018-07-13T15:11:30.052Z,101215.92
2018-07-13T15:13:59.298Z,101209.77
2018-07-13T15:16:28.426Z,101209.02
2018-07-13T15:18:57.985Z,101206.02
2018-07-13T15:21:31.534Z,101210.00
2018-07-13T15:24:00.754Z,101204.89
2018-07-13T15:26:29.946Z,101201.42
2018-07-13T15:28:59.038Z,101200.41
2018-07-13T15:31:28.171Z,101199.70
2018-07-13T15:33:57.285Z,101202.13
2018-07-13T15:36:26.421Z,101193.52
2018-07-13T15:38:55.565Z,101193.57
2018-07-13T15:41:24.705Z,101195.86
2018-07-13T15:43:53.813Z,101196.20
2018-07-13T15:46:23.014Z,101194.23
2018-07-13T15:48:52.250Z,101195.20
2018-07-13T15:51:21.349Z,101193.53
2018-07-13T15:53:51.545Z,101195.46
2018-07-13T15:56:20.672Z,101183.77
2018-07-13T15:58:49.901Z,101180.41
2018-07-13T16:01:19.192Z,101183.10
2018-07-13T16:03:50.333Z,101184.23
2018-07-13T16:06:19.471Z,101180.33
2018-07-13T16:08:51.862Z,101181.75
2018-07-13T16:11:21.033Z,101173.73
2018-07-13T16:13:50.317Z,101178.44
2018-07-13T16:16:19.559Z,101182.78
2018-07-13T16:18:49.586Z,101190.45
2018-07-13T16:21:19.738Z,101180.75
2018-07-13T16:23:49.834Z,101186.77
2018-07-13T16:26:19.882Z,101184.84
2018-07-13T16:28:49.133Z,101181.81
2018-07-13T16:31:24.230Z,101181.70
2018-07-13T16:34:06.541Z,101182.37
2018-07-13T16:36:36.545Z,101169.62
2018-07-13T16:39:18.109Z,101169.97
2018-07-13T16:41:58.959Z,101163.77
2018-07-13T16:44:29.142Z,101160.23
2018-07-13T16:46:59.350Z,101161.77
2018-07-13T16:49:28.482Z,101164.28
2018-07-13T16:51:57.691Z,101157.48
2018-07-13T16:54:26.754Z,101161.34
2018-07-13T16:56:55.881Z,101159.50
2018-07-13T16:59:25.040Z,101159.97
2018-07-13T17:01:54.149Z,101157.22
2018-07-13T17:04:23.261Z,101155.41
2018-07-13T17:06:52.405Z,101160.67
2018-07-13T17:09:21.510Z,101154.70
2018-07-13T17:11:50.752Z,101153.09
2018-07-13T17:14:19.841Z,101147.33
2018-07-13T17:16:53.657Z,101151.48
2018-07-13T17:19:22.813Z,101155.33
2018-07-13T17:21:51.980Z,101157.53
2018-07-13T17:24:21.085Z,101150.36
2018-07-13T17:26:58.405Z,101147.41
2018-07-13T17:29:28.541Z,101149.96
2018-07-13T17:31:57.657Z,101153.02
2018-07-13T17:34:26.740Z,101145.80
2018-07-13T17:36:56.939Z,101146.94
2018-07-13T17:39:27.134Z,101146.94
2018-07-13T17:42:03.387Z,101144.06
2018-07-13T17:44:32.609Z,101146.16
2018-07-13T17:47:02.777Z,101148.94
2018-07-13T17:49:31.993Z,101147.14
2018-07-13T17:52:01.123Z,101147.48
2018-07-13T17:54:30.333Z,101140.55
2018-07-13T17:56:59.554Z,101141.96
2018-07-13T17:59:28.719Z,101136.08
2018-07-13T18:01:57.894Z,101137.65
2018-07-13T18:04:27.029Z,101145.84
2018-07-13T18:06:56.141Z,101135.28
2018-07-13T18:09:25.747Z,101136.70
2018-07-13T18:12:01.455Z,101143.38
2018-07-13T18:14:30.585Z,101138.63
2018-07-13T18:16:59.705Z,101141.67
2018-07-13T18:19:28.845Z,101143.67
2018-07-13T18:21:57.951Z,101134.22
2018-07-13T18:24:27.109Z,101140.22
2018-07-13T18:26:56.225Z,101140.27
2018-07-13T18:29:31.754Z,101145.42
2018-07-13T18:32:00.929Z,101146.84
2018-07-13T18:34:48.776Z,101141.52
2018-07-13T18:37:17.939Z,101144.49
2018-07-13T18:39:47.079Z,101140.66
2018-07-13T18:42:19.661Z,101145.98
2018-07-13T18:44:48.885Z,101146.45
2018-07-13T18:47:18.038Z,101146.50
2018-07-13T18:49:47.195Z,101153.52
2018-07-13T18:52:16.346Z,101148.45
2018-07-13T18:54:45.463Z,101151.97
2018-07-13T18:57:14.637Z,101157.44
2018-07-13T18:59:43.730Z,101152.30
2018-07-13T19:02:12.867Z,101156.14
2018-07-13T19:04:41.999Z,101160.46
2018-07-13T19:07:11.154Z,101169.70
2018-07-13T19:09:40.288Z,101167.80
2018-07-13T19:12:09.424Z,101170.62
2018-07-13T19:14:52.059Z,101168.95
2018-07-13T19:17:22.286Z,101170.41
2018-07-13T19:19:51.390Z,101170.53
2018-07-13T19:22:20.510Z,101179.20
2018-07-13T19:25:01.050Z,101173.37
2018-07-13T19:27:30.173Z,101175.98
2018-07-13T19:30:01.366Z,101178.58
2018-07-13T19:32:30.533Z,101184.70
2018-07-13T19:35:00.701Z,101187.05
2018-07-13T19:37:29.819Z,101183.53
2018-07-13T19:39:59.025Z,101192.39
2018-07-13T19:42:28.328Z,101192.20
2018-07-13T19:44:57.321Z,101190.78
2018-07-13T19:47:26.466Z,101199.42
2018-07-13T19:49:55.602Z,101202.48
2018-07-13T19:52:24.702Z,101201.70
2018-07-13T19:54:53.832Z,101202.00
2018-07-13T19:57:24.116Z,101201.47
2018-07-13T19:59:54.433Z,101210.72
2018-07-13T20:02:23.658Z,101213.25
2018-07-13T20:05:02.674Z,101222.23
2018-07-13T20:07:35.240Z,101221.92
2018-07-13T20:10:04.570Z,101220.91
2018-07-13T20:12:33.930Z,101226.30
2018-07-13T20:15:05.185Z,101225.73
2018-07-13T20:17:39.782Z,101221.11
2018-07-13T20:20:09.597Z,101227.32
2018-07-13T20:22:39.039Z,101233.79
2018-07-13T20:25:08.553Z,101236.58
2018-07-13T20:27:37.894Z,101236.70
2018-07-13T20:30:07.564Z,101234.06
2018-07-13T20:32:37.755Z,101229.80
2018-07-13T20:35:06.898Z,101233.82
2018-07-13T20:37:36.992Z,101233.98
2018-07-13T20:40:07.651Z,101238.86
2018-07-13T20:42:36.769Z,101237.19
2018-07-13T20:45:05.906Z,101248.11
2018-07-13T20:47:35.054Z,101245.33
2018-07-13T20:50:04.165Z,101246.23
2018-07-13T20:52:33.292Z,101245.33
2018-07-13T20:55:02.486Z,101241.75
2018-07-13T20:57:31.605Z,101250.20
2018-07-13T21:00:00.870Z,101250.20
2018-07-13T21:02:29.974Z,101251.77
2018-07-13T21:04:59.081Z,101252.46
2018-07-13T21:07:28.189Z,101255.11
2018-07-13T21:09:57.318Z,101252.64
2018-07-13T21:12:26.473Z,101252.94
2018-07-13T21:14:55.673Z,101256.16
2018-07-13T21:17:24.800Z,101257.89
2018-07-13T21:19:53.895Z,101255.44
2018-07-13T21:22:23.035Z,101260.47
2018-07-13T21:24:52.324Z,101264.28
2018-07-13T21:27:21.489Z,101259.60
2018-07-13T21:29:50.582Z,101258.78
2018-07-13T21:32:19.690Z,101263.20
2018-07-13T21:34:48.798Z,101265.19
2018-07-13T21:37:17.933Z,101267.83
2018-07-13T21:39:47.035Z,101260.72
2018-07-13T21:42:16.145Z,101257.08
2018-07-13T21:44:45.245Z,101261.53
2018-07-13T21:47:14.361Z,101262.70
2018-07-13T21:49:43.468Z,101260.16
2018-07-13T21:52:12.662Z,101253.86
2018-07-13T21:54:41.696Z,101251.58
2018-07-13T21:57:10.834Z,101262.27
2018-07-13T21:59:40.110Z,101264.61
2018-07-13T22:02:09.218Z,101257.94
2018-07-13T22:04:38.317Z,101260.27
2018-07-13T22:07:07.438Z,101265.56
2018-07-13T22:09:36.532Z,101264.88
2018-07-13T22:12:05.714Z,101261.93
2018-07-13T22:14:34.837Z,101262.82
2018-07-13T22:17:03.973Z,101259.29
2018-07-13T22:19:34.120Z,101258.59
2018-07-13T22:22:03.826Z,101259.65
2018-07-13T22:24:33.002Z,101262.73
2018-07-13T22:27:02.133Z,101264.91
2018-07-13T22:29:31.849Z,101265.78
2018-07-13T22:32:00.986Z,101271.56
2018-07-13T22:34:30.128Z,101266.72
2018-07-13T22:36:59.248Z,101265.94
2018-07-13T22:39:28.340Z,101262.88
2018-07-13T22:42:01.311Z,101272.53
2018-07-13T22:44:30.424Z,101263.16
2018-07-13T22:46:59.629Z,101263.00
2018-07-13T22:49:28.738Z,101270.69
2018-07-13T22:52:01.106Z,101268.38
2018-07-13T22:54:30.228Z,101270.95
2018-07-13T22:56:59.346Z,101271.58
2018-07-13T22:59:32.001Z,101273.94
2018-07-13T23:02:01.209Z,101277.63
2018-07-13T23:04:34.399Z,101279.77
2018-07-13T23:07:03.574Z,101272.04
2018-07-13T23:09:32.694Z,101275.97
2018-07-13T23:12:01.870Z,101274.91
2018-07-13T23:14:30.997Z,101272.61
2018-07-13T23:17:00.110Z,101270.22
2018-07-13T23:19:30.164Z,101268.02
2018-07-13T23:21:59.281Z,101267.83
2018-07-13T23:24:28.400Z,101263.00
2018-07-13T23:26:57.509Z,101263.36
2018-07-13T23:29:28.664Z,101257.43
2018-07-13T23:31:57.765Z,101259.30
2018-07-13T23:34:26.913Z,101263.17
2018-07-13T23:36:56.059Z,101263.25
2018-07-13T23:39:25.152Z,101257.69
2018-07-13T23:41:54.277Z,101257.22
2018-07-13T23:44:23.361Z,101266.88
2018-07-13T23:46:52.513Z,101257.70
2018-07-13T23:49:21.621Z,101266.01
2018-07-13T23:51:50.733Z,101259.15
2018-07-13T23:54:19.830Z,101266.01
2018-07-13T23:56:49.121Z,101254.46
2018-07-13T23:59:18.250Z,101260.52
